sensor_id;sensor_type;location;lat;lon;timestamp;temperature;humidity
44817;DHT22;30529;53.570;9.964;2022-12-24T00:00:06;6.40;99.90
44817;DHT22;30529;53.570;9.964;2022-12-24T00:02:33;6.30;99.90
44817;DHT22;30529;53.570;9.964;2022-12-24T00:04:59;6.40;99.90
44817;DHT22;30529;53.570;9.964;2022-12-24T00:07:25;6.40;99.90
44817;DHT22;30529;53.570;9.964;2022-12-24T00:09:51;6.30;99.90
44817;DHT22;30529;53.570;9.964;2022-12-24T00:12:16;6.40;99.90
44817;DHT22;30529;53.570;9.964;2022-12-24T00:14:42;6.40;99.90
44817;DHT22;30529;53.570;9.964;2022-12-24T00:17:08;6.50;99.90
44817;DHT22;30529;53.570;9.964;2022-12-24T00:19:34;6.50;99.90
44817;DHT22;30529;53.570;9.964;2022-12-24T00:22:00;6.50;99.90
44817;DHT22;30529;53.570;9.964;2022-12-24T00:24:26;6.50;99.90
44817;DHT22;30529;53.570;9.964;2022-12-24T00:26:52;6.50;99.90
44817;DHT22;30529;53.570;9.964;2022-12-24T00:29:18;6.50;99.90
44817;DHT22;30529;53.570;9.964;2022-12-24T00:31:44;6.40;99.90
44817;DHT22;30529;53.570;9.964;2022-12-24T00:34:10;6.40;99.90
44817;DHT22;30529;53.570;9.964;2022-12-24T00:36:36;6.50;99.90
44817;DHT22;30529;53.570;9.964;2022-12-24T00:39:02;6.50;99.90
44817;DHT22;30529;53.570;9.964;2022-12-24T00:41:28;6.50;99.90
44817;DHT22;30529;53.570;9.964;2022-12-24T00:43:59;6.40;99.90
44817;DHT22;30529;53.570;9.964;2022-12-24T00:46:28;6.50;99.90
44817;DHT22;30529;53.570;9.964;2022-12-24T00:48:54;6.40;99.90
44817;DHT22;30529;53.570;9.964;2022-12-24T00:51:21;6.50;99.90
44817;DHT22;30529;53.570;9.964;2022-12-24T00:53:47;6.50;99.90
44817;DHT22;30529;53.570;9.964;2022-12-24T00:56:14;6.40;99.90
44817;DHT22;30529;53.570;9.964;2022-12-24T00:58:40;6.40;99.90
44817;DHT22;30529;53.570;9.964;2022-12-24T01:01:06;6.40;99.90
44817;DHT22;30529;53.570;9.964;2022-12-24T01:03:32;6.40;99.90
44817;DHT22;30529;53.570;9.964;2022-12-24T01:06:10;6.50;99.90
44817;DHT22;30529;53.570;9.964;2022-12-24T01:08:36;6.50;99.90
44817;DHT22;30529;53.570;9.964;2022-12-24T01:11:04;6.50;99.90
44817;DHT22;30529;53.570;9.964;2022-12-24T01:13:30;6.60;99.90
44817;DHT22;30529;53.570;9.964;2022-12-24T01:15:56;6.60;99.90
44817;DHT22;30529;53.570;9.964;2022-12-24T01:18:23;6.60;99.90
44817;DHT22;30529;53.570;9.964;2022-12-24T01:21:01;6.60;99.90
44817;DHT22;30529;53.570;9.964;2022-12-24T01:23:28;6.60;99.90
44817;DHT22;30529;53.570;9.964;2022-12-24T01:25:58;6.60;99.90
44817;DHT22;30529;53.570;9.964;2022-12-24T01:28:25;6.50;99.90
44817;DHT22;30529;53.570;9.964;2022-12-24T01:30:51;6.50;99.90
44817;DHT22;30529;53.570;9.964;2022-12-24T01:33:17;6.60;99.90
44817;DHT22;30529;53.570;9.964;2022-12-24T01:35:43;6.50;99.90
44817;DHT22;30529;53.570;9.964;2022-12-24T01:38:10;6.50;99.90
44817;DHT22;30529;53.570;9.964;2022-12-24T01:40:41;6.50;99.90
44817;DHT22;30529;53.570;9.964;2022-12-24T01:43:29;6.50;99.90
44817;DHT22;30529;53.570;9.964;2022-12-24T01:48:44;6.60;99.90
44817;DHT22;30529;53.570;9.964;2022-12-24T01:51:34;6.50;99.90
44817;DHT22;30529;53.570;9.964;2022-12-24T01:56:45;6.50;99.90
44817;DHT22;30529;53.570;9.964;2022-12-24T01:59:15;6.50;99.90
44817;DHT22;30529;53.570;9.964;2022-12-24T02:01:44;6.60;99.90
44817;DHT22;30529;53.570;9.964;2022-12-24T02:04:33;6.50;99.90
44817;DHT22;30529;53.570;9.964;2022-12-24T02:06:59;6.50;99.90
44817;DHT22;30529;53.570;9.964;2022-12-24T02:09:26;6.50;99.90
44817;DHT22;30529;53.570;9.964;2022-12-24T02:11:52;6.60;99.90
44817;DHT22;30529;53.570;9.964;2022-12-24T02:14:18;6.60;99.90
44817;DHT22;30529;53.570;9.964;2022-12-24T02:16:51;6.60;99.90
44817;DHT22;30529;53.570;9.964;2022-12-24T02:19:30;6.60;99.90
44817;DHT22;30529;53.570;9.964;2022-12-24T02:22:31;6.60;99.90
44817;DHT22;30529;53.570;9.964;2022-12-24T02:25:22;6.60;99.90
44817;DHT22;30529;53.570;9.964;2022-12-24T02:28:03;6.50;99.90
44817;DHT22;30529;53.570;9.964;2022-12-24T02:30:40;6.60;99.90
44817;DHT22;30529;53.570;9.964;2022-12-24T02:33:41;6.60;99.90
44817;DHT22;30529;53.570;9.964;2022-12-24T02:36:17;6.70;99.90
44817;DHT22;30529;53.570;9.964;2022-12-24T02:39:02;6.60;99.90
44817;DHT22;30529;53.570;9.964;2022-12-24T02:41:32;6.60;99.90
44817;DHT22;30529;53.570;9.964;2022-12-24T02:44:22;6.60;99.90
44817;DHT22;30529;53.570;9.964;2022-12-24T02:46:50;6.60;99.90
44817;DHT22;30529;53.570;9.964;2022-12-24T02:49:17;6.50;99.90
44817;DHT22;30529;53.570;9.964;2022-12-24T02:51:43;6.60;99.90
44817;DHT22;30529;53.570;9.964;2022-12-24T02:54:09;6.50;99.90
44817;DHT22;30529;53.570;9.964;2022-12-24T03:02:02;6.60;99.90
44817;DHT22;30529;53.570;9.964;2022-12-24T03:04:50;6.60;99.90
44817;DHT22;30529;53.570;9.964;2022-12-24T03:07:21;6.50;99.90
44817;DHT22;30529;53.570;9.964;2022-12-24T03:10:10;6.60;99.90
44817;DHT22;30529;53.570;9.964;2022-12-24T03:12:46;6.60;99.90
44817;DHT22;30529;53.570;9.964;2022-12-24T03:15:16;6.60;99.90
44817;DHT22;30529;53.570;9.964;2022-12-24T03:17:46;6.70;99.90
44817;DHT22;30529;53.570;9.964;2022-12-24T03:20:18;6.70;99.90
44817;DHT22;30529;53.570;9.964;2022-12-24T03:22:45;6.70;99.90
44817;DHT22;30529;53.570;9.964;2022-12-24T03:25:11;6.70;99.90
44817;DHT22;30529;53.570;9.964;2022-12-24T03:27:38;6.70;99.90
44817;DHT22;30529;53.570;9.964;2022-12-24T03:30:10;6.70;99.90
44817;DHT22;30529;53.570;9.964;2022-12-24T03:32:37;6.70;99.90
44817;DHT22;30529;53.570;9.964;2022-12-24T03:35:04;6.70;99.90
44817;DHT22;30529;53.570;9.964;2022-12-24T03:37:31;6.60;99.90
44817;DHT22;30529;53.570;9.964;2022-12-24T03:39:57;6.70;99.90
44817;DHT22;30529;53.570;9.964;2022-12-24T03:42:23;6.70;99.90
44817;DHT22;30529;53.570;9.964;2022-12-24T03:44:49;6.70;99.90
44817;DHT22;30529;53.570;9.964;2022-12-24T03:47:15;6.70;99.90
44817;DHT22;30529;53.570;9.964;2022-12-24T03:49:41;6.70;99.90
44817;DHT22;30529;53.570;9.964;2022-12-24T03:52:07;6.70;99.90
44817;DHT22;30529;53.570;9.964;2022-12-24T03:54:33;6.70;99.90
44817;DHT22;30529;53.570;9.964;2022-12-24T03:56:59;6.60;99.90
44817;DHT22;30529;53.570;9.964;2022-12-24T03:59:25;6.70;99.90
44817;DHT22;30529;53.570;9.964;2022-12-24T04:01:52;6.70;99.90
44817;DHT22;30529;53.570;9.964;2022-12-24T04:04:18;6.60;99.90
44817;DHT22;30529;53.570;9.964;2022-12-24T04:06:44;6.60;99.90
44817;DHT22;30529;53.570;9.964;2022-12-24T04:09:10;6.70;99.90
44817;DHT22;30529;53.570;9.964;2022-12-24T04:11:36;6.70;99.90
44817;DHT22;30529;53.570;9.964;2022-12-24T04:14:02;6.70;99.90
44817;DHT22;30529;53.570;9.964;2022-12-24T04:16:28;6.60;99.90
44817;DHT22;30529;53.570;9.964;2022-12-24T04:18:54;6.70;99.90
44817;DHT22;30529;53.570;9.964;2022-12-24T04:21:20;6.70;99.90
44817;DHT22;30529;53.570;9.964;2022-12-24T04:23:46;6.70;99.90
44817;DHT22;30529;53.570;9.964;2022-12-24T04:26:13;6.70;99.90
44817;DHT22;30529;53.570;9.964;2022-12-24T04:28:40;6.60;99.90
44817;DHT22;30529;53.570;9.964;2022-12-24T04:31:10;6.70;99.90
44817;DHT22;30529;53.570;9.964;2022-12-24T04:33:36;6.70;99.90
44817;DHT22;30529;53.570;9.964;2022-12-24T04:36:04;6.70;99.90
44817;DHT22;30529;53.570;9.964;2022-12-24T04:38:31;6.60;99.90
44817;DHT22;30529;53.570;9.964;2022-12-24T04:41:03;6.60;99.90
44817;DHT22;30529;53.570;9.964;2022-12-24T04:43:30;6.60;99.90
44817;DHT22;30529;53.570;9.964;2022-12-24T04:46:02;6.60;99.90
44817;DHT22;30529;53.570;9.964;2022-12-24T04:48:28;6.60;99.90
44817;DHT22;30529;53.570;9.964;2022-12-24T04:50:54;6.60;99.90
44817;DHT22;30529;53.570;9.964;2022-12-24T04:53:20;6.60;99.90
44817;DHT22;30529;53.570;9.964;2022-12-24T04:55:46;6.50;99.90
44817;DHT22;30529;53.570;9.964;2022-12-24T04:58:12;6.60;99.90
44817;DHT22;30529;53.570;9.964;2022-12-24T05:00:39;6.50;99.90
44817;DHT22;30529;53.570;9.964;2022-12-24T05:03:05;6.50;99.90
44817;DHT22;30529;53.570;9.964;2022-12-24T05:05:31;6.50;99.90
44817;DHT22;30529;53.570;9.964;2022-12-24T05:07:57;6.60;99.90
44817;DHT22;30529;53.570;9.964;2022-12-24T05:10:23;6.50;99.90
44817;DHT22;30529;53.570;9.964;2022-12-24T05:12:49;6.50;99.90
44817;DHT22;30529;53.570;9.964;2022-12-24T05:15:15;6.50;99.90
44817;DHT22;30529;53.570;9.964;2022-12-24T05:17:41;6.50;99.90
44817;DHT22;30529;53.570;9.964;2022-12-24T05:20:07;6.50;99.90
44817;DHT22;30529;53.570;9.964;2022-12-24T05:22:33;6.50;99.90
44817;DHT22;30529;53.570;9.964;2022-12-24T05:25:18;6.50;99.90
44817;DHT22;30529;53.570;9.964;2022-12-24T05:28:03;6.50;99.90
44817;DHT22;30529;53.570;9.964;2022-12-24T05:30:29;6.50;99.90
44817;DHT22;30529;53.570;9.964;2022-12-24T05:32:54;6.50;99.90
44817;DHT22;30529;53.570;9.964;2022-12-24T05:35:20;6.50;99.90
44817;DHT22;30529;53.570;9.964;2022-12-24T05:37:46;6.60;99.90
44817;DHT22;30529;53.570;9.964;2022-12-24T05:40:12;6.60;99.90
44817;DHT22;30529;53.570;9.964;2022-12-24T05:42:38;6.50;99.90
44817;DHT22;30529;53.570;9.964;2022-12-24T05:45:05;6.50;99.90
44817;DHT22;30529;53.570;9.964;2022-12-24T05:47:31;6.50;99.90
44817;DHT22;30529;53.570;9.964;2022-12-24T05:49:57;6.50;99.90
44817;DHT22;30529;53.570;9.964;2022-12-24T05:52:23;6.50;99.90
44817;DHT22;30529;53.570;9.964;2022-12-24T05:54:49;6.50;99.90
44817;DHT22;30529;53.570;9.964;2022-12-24T05:57:15;6.50;99.90
44817;DHT22;30529;53.570;9.964;2022-12-24T05:59:41;6.50;99.90
44817;DHT22;30529;53.570;9.964;2022-12-24T06:02:07;6.40;99.90
44817;DHT22;30529;53.570;9.964;2022-12-24T06:04:33;6.40;99.90
44817;DHT22;30529;53.570;9.964;2022-12-24T06:06:59;6.40;99.90
44817;DHT22;30529;53.570;9.964;2022-12-24T06:09:25;6.40;99.90
44817;DHT22;30529;53.570;9.964;2022-12-24T06:11:51;6.30;99.90
44817;DHT22;30529;53.570;9.964;2022-12-24T06:14:17;6.30;99.90
44817;DHT22;30529;53.570;9.964;2022-12-24T06:16:43;6.40;99.90
44817;DHT22;30529;53.570;9.964;2022-12-24T06:19:09;6.40;99.90
44817;DHT22;30529;53.570;9.964;2022-12-24T06:21:35;6.40;99.90
44817;DHT22;30529;53.570;9.964;2022-12-24T06:24:01;6.40;99.90
44817;DHT22;30529;53.570;9.964;2022-12-24T06:26:27;6.40;99.90
44817;DHT22;30529;53.570;9.964;2022-12-24T06:28:53;6.40;99.90
44817;DHT22;30529;53.570;9.964;2022-12-24T06:31:21;6.40;99.90
44817;DHT22;30529;53.570;9.964;2022-12-24T06:33:47;6.40;99.90
44817;DHT22;30529;53.570;9.964;2022-12-24T06:36:16;6.40;99.90
44817;DHT22;30529;53.570;9.964;2022-12-24T06:38:43;6.30;99.90
44817;DHT22;30529;53.570;9.964;2022-12-24T06:41:09;6.30;99.90
44817;DHT22;30529;53.570;9.964;2022-12-24T06:43:35;6.40;99.90
44817;DHT22;30529;53.570;9.964;2022-12-24T06:46:02;6.40;99.90
44817;DHT22;30529;53.570;9.964;2022-12-24T06:48:28;6.40;99.90
44817;DHT22;30529;53.570;9.964;2022-12-24T06:50:54;6.40;99.90
44817;DHT22;30529;53.570;9.964;2022-12-24T06:53:20;6.30;99.90
44817;DHT22;30529;53.570;9.964;2022-12-24T06:55:47;6.30;99.90
44817;DHT22;30529;53.570;9.964;2022-12-24T06:58:13;6.30;99.90
44817;DHT22;30529;53.570;9.964;2022-12-24T07:00:39;6.30;99.90
44817;DHT22;30529;53.570;9.964;2022-12-24T07:03:05;6.30;99.90
44817;DHT22;30529;53.570;9.964;2022-12-24T07:05:31;6.40;99.90
44817;DHT22;30529;53.570;9.964;2022-12-24T07:07:57;6.40;99.90
44817;DHT22;30529;53.570;9.964;2022-12-24T07:10:23;6.40;99.90
44817;DHT22;30529;53.570;9.964;2022-12-24T07:12:49;6.50;99.90
44817;DHT22;30529;53.570;9.964;2022-12-24T07:15:16;6.50;99.90
44817;DHT22;30529;53.570;9.964;2022-12-24T07:17:42;6.40;99.90
44817;DHT22;30529;53.570;9.964;2022-12-24T07:20:11;6.30;99.90
44817;DHT22;30529;53.570;9.964;2022-12-24T07:22:38;6.30;99.90
44817;DHT22;30529;53.570;9.964;2022-12-24T07:25:04;6.40;99.90
44817;DHT22;30529;53.570;9.964;2022-12-24T07:27:30;6.40;99.90
44817;DHT22;30529;53.570;9.964;2022-12-24T07:29:56;6.50;99.90
44817;DHT22;30529;53.570;9.964;2022-12-24T07:32:22;6.50;99.90
44817;DHT22;30529;53.570;9.964;2022-12-24T07:34:48;6.50;99.90
44817;DHT22;30529;53.570;9.964;2022-12-24T07:37:14;6.40;99.90
44817;DHT22;30529;53.570;9.964;2022-12-24T07:39:40;6.40;99.90
44817;DHT22;30529;53.570;9.964;2022-12-24T07:42:06;6.30;99.90
44817;DHT22;30529;53.570;9.964;2022-12-24T07:44:33;6.30;99.90
44817;DHT22;30529;53.570;9.964;2022-12-24T07:46:59;6.30;99.90
44817;DHT22;30529;53.570;9.964;2022-12-24T07:49:25;6.30;99.90
44817;DHT22;30529;53.570;9.964;2022-12-24T07:51:51;6.30;99.90
44817;DHT22;30529;53.570;9.964;2022-12-24T07:54:17;6.30;99.90
44817;DHT22;30529;53.570;9.964;2022-12-24T07:56:43;6.30;99.90
44817;DHT22;30529;53.570;9.964;2022-12-24T07:59:12;6.40;99.90
44817;DHT22;30529;53.570;9.964;2022-12-24T08:01:38;6.40;99.90
44817;DHT22;30529;53.570;9.964;2022-12-24T08:04:04;6.40;99.90
44817;DHT22;30529;53.570;9.964;2022-12-24T08:06:30;6.40;99.90
44817;DHT22;30529;53.570;9.964;2022-12-24T08:08:56;6.50;99.90
44817;DHT22;30529;53.570;9.964;2022-12-24T08:11:22;6.50;99.90
44817;DHT22;30529;53.570;9.964;2022-12-24T08:13:48;6.50;99.90
44817;DHT22;30529;53.570;9.964;2022-12-24T08:16:14;6.50;99.90
44817;DHT22;30529;53.570;9.964;2022-12-24T08:18:40;6.50;99.90
44817;DHT22;30529;53.570;9.964;2022-12-24T08:21:07;6.50;99.90
44817;DHT22;30529;53.570;9.964;2022-12-24T08:23:34;6.60;99.90
44817;DHT22;30529;53.570;9.964;2022-12-24T08:26:00;6.60;99.90
44817;DHT22;30529;53.570;9.964;2022-12-24T08:28:26;6.50;99.90
44817;DHT22;30529;53.570;9.964;2022-12-24T08:30:52;6.50;99.90
44817;DHT22;30529;53.570;9.964;2022-12-24T08:33:18;6.60;99.90
44817;DHT22;30529;53.570;9.964;2022-12-24T08:35:51;6.60;99.90
44817;DHT22;30529;53.570;9.964;2022-12-24T08:38:18;6.60;99.90
44817;DHT22;30529;53.570;9.964;2022-12-24T08:40:45;6.60;99.90
44817;DHT22;30529;53.570;9.964;2022-12-24T08:43:17;6.60;99.90
44817;DHT22;30529;53.570;9.964;2022-12-24T08:45:43;6.60;99.90
44817;DHT22;30529;53.570;9.964;2022-12-24T08:48:10;6.60;99.90
44817;DHT22;30529;53.570;9.964;2022-12-24T08:50:39;6.50;99.90
44817;DHT22;30529;53.570;9.964;2022-12-24T08:53:05;6.50;99.90
44817;DHT22;30529;53.570;9.964;2022-12-24T08:55:32;6.40;99.90
44817;DHT22;30529;53.570;9.964;2022-12-24T08:57:58;6.50;99.90
44817;DHT22;30529;53.570;9.964;2022-12-24T09:00:25;6.50;99.90
44817;DHT22;30529;53.570;9.964;2022-12-24T09:02:51;6.40;99.90
44817;DHT22;30529;53.570;9.964;2022-12-24T09:05:17;6.40;99.90
44817;DHT22;30529;53.570;9.964;2022-12-24T09:07:43;6.40;99.90
44817;DHT22;30529;53.570;9.964;2022-12-24T09:10:10;6.50;99.90
44817;DHT22;30529;53.570;9.964;2022-12-24T09:12:36;6.50;99.90
44817;DHT22;30529;53.570;9.964;2022-12-24T09:15:03;6.50;99.90
44817;DHT22;30529;53.570;9.964;2022-12-24T09:17:30;6.50;99.90
44817;DHT22;30529;53.570;9.964;2022-12-24T09:19:56;6.60;99.90
44817;DHT22;30529;53.570;9.964;2022-12-24T09:22:22;6.70;99.90
44817;DHT22;30529;53.570;9.964;2022-12-24T09:24:48;6.60;99.90
44817;DHT22;30529;53.570;9.964;2022-12-24T09:27:14;6.70;99.90
44817;DHT22;30529;53.570;9.964;2022-12-24T09:29:40;6.70;99.90
44817;DHT22;30529;53.570;9.964;2022-12-24T09:32:06;6.70;99.90
44817;DHT22;30529;53.570;9.964;2022-12-24T09:34:32;6.60;99.90
44817;DHT22;30529;53.570;9.964;2022-12-24T09:36:58;6.70;99.90
44817;DHT22;30529;53.570;9.964;2022-12-24T09:39:27;6.60;99.90
44817;DHT22;30529;53.570;9.964;2022-12-24T09:47:26;6.80;99.90
44817;DHT22;30529;53.570;9.964;2022-12-24T09:49:56;6.90;99.90
44817;DHT22;30529;53.570;9.964;2022-12-24T09:52:38;6.90;99.90
44817;DHT22;30529;53.570;9.964;2022-12-24T09:57:39;6.90;99.90
44817;DHT22;30529;53.570;9.964;2022-12-24T10:00:21;6.90;99.90
44817;DHT22;30529;53.570;9.964;2022-12-24T10:02:47;6.90;99.90
44817;DHT22;30529;53.570;9.964;2022-12-24T10:05:14;6.90;99.90
44817;DHT22;30529;53.570;9.964;2022-12-24T10:08:11;6.90;99.90
44817;DHT22;30529;53.570;9.964;2022-12-24T10:11:06;7.00;99.90
44817;DHT22;30529;53.570;9.964;2022-12-24T10:20:13;7.00;99.90
44817;DHT22;30529;53.570;9.964;2022-12-24T10:25:30;7.10;99.90
44817;DHT22;30529;53.570;9.964;2022-12-24T10:28:01;7.10;99.90
44817;DHT22;30529;53.570;9.964;2022-12-24T10:30:28;7.20;99.90
44817;DHT22;30529;53.570;9.964;2022-12-24T10:32:54;7.20;99.90
44817;DHT22;30529;53.570;9.964;2022-12-24T10:35:24;7.20;99.90
44817;DHT22;30529;53.570;9.964;2022-12-24T10:37:51;7.30;99.90
44817;DHT22;30529;53.570;9.964;2022-12-24T10:40:29;7.30;99.90
44817;DHT22;30529;53.570;9.964;2022-12-24T10:42:57;7.30;99.90
44817;DHT22;30529;53.570;9.964;2022-12-24T10:45:24;7.30;99.90
44817;DHT22;30529;53.570;9.964;2022-12-24T10:47:54;7.30;99.90
44817;DHT22;30529;53.570;9.964;2022-12-24T10:50:42;7.30;99.90
44817;DHT22;30529;53.570;9.964;2022-12-24T10:53:17;7.30;99.90
44817;DHT22;30529;53.570;9.964;2022-12-24T10:55:46;7.20;99.90
44817;DHT22;30529;53.570;9.964;2022-12-24T10:58:16;7.20;99.90
44817;DHT22;30529;53.570;9.964;2022-12-24T11:00:49;7.20;99.90
44817;DHT22;30529;53.570;9.964;2022-12-24T11:03:22;7.30;99.90
44817;DHT22;30529;53.570;9.964;2022-12-24T11:06:08;7.40;99.90
44817;DHT22;30529;53.570;9.964;2022-12-24T11:08:37;7.50;99.90
44817;DHT22;30529;53.570;9.964;2022-12-24T11:11:06;7.50;99.90
44817;DHT22;30529;53.570;9.964;2022-12-24T11:13:42;7.50;99.90
44817;DHT22;30529;53.570;9.964;2022-12-24T11:18:49;7.50;99.90
44817;DHT22;30529;53.570;9.964;2022-12-24T11:21:33;7.60;99.90
44817;DHT22;30529;53.570;9.964;2022-12-24T11:24:29;7.70;99.90
44817;DHT22;30529;53.570;9.964;2022-12-24T11:26:53;7.70;99.90
44817;DHT22;30529;53.570;9.964;2022-12-24T11:29:25;7.70;99.90
44817;DHT22;30529;53.570;9.964;2022-12-24T11:31:51;7.70;99.90
44817;DHT22;30529;53.570;9.964;2022-12-24T11:34:23;7.70;99.90
44817;DHT22;30529;53.570;9.964;2022-12-24T11:36:50;7.70;99.90
44817;DHT22;30529;53.570;9.964;2022-12-24T11:39:20;7.70;99.90
44817;DHT22;30529;53.570;9.964;2022-12-24T11:41:48;7.70;99.90
44817;DHT22;30529;53.570;9.964;2022-12-24T11:44:25;7.60;99.90
44817;DHT22;30529;53.570;9.964;2022-12-24T11:46:52;7.50;99.90
44817;DHT22;30529;53.570;9.964;2022-12-24T11:49:29;7.60;99.90
44817;DHT22;30529;53.570;9.964;2022-12-24T11:52:10;7.60;99.90
44817;DHT22;30529;53.570;9.964;2022-12-24T11:54:50;7.70;99.90
44817;DHT22;30529;53.570;9.964;2022-12-24T11:57:19;7.70;99.90
44817;DHT22;30529;53.570;9.964;2022-12-24T11:59:48;7.80;99.90
44817;DHT22;30529;53.570;9.964;2022-12-24T12:02:37;8.00;99.90
44817;DHT22;30529;53.570;9.964;2022-12-24T12:05:09;8.00;99.90
44817;DHT22;30529;53.570;9.964;2022-12-24T12:07:37;7.90;99.90
44817;DHT22;30529;53.570;9.964;2022-12-24T12:10:05;7.90;99.90
44817;DHT22;30529;53.570;9.964;2022-12-24T12:12:40;7.90;99.90
44817;DHT22;30529;53.570;9.964;2022-12-24T12:15:14;8.00;99.90
44817;DHT22;30529;53.570;9.964;2022-12-24T12:17:53;8.00;99.90
44817;DHT22;30529;53.570;9.964;2022-12-24T12:23:31;8.20;99.90
44817;DHT22;30529;53.570;9.964;2022-12-24T12:26:06;8.30;99.90
44817;DHT22;30529;53.570;9.964;2022-12-24T12:28:50;8.60;99.90
44817;DHT22;30529;53.570;9.964;2022-12-24T12:34:17;8.70;99.90
44817;DHT22;30529;53.570;9.964;2022-12-24T12:36:57;8.70;99.90
44817;DHT22;30529;53.570;9.964;2022-12-24T12:39:25;8.80;99.90
44817;DHT22;30529;53.570;9.964;2022-12-24T12:52:58;8.70;99.90
44817;DHT22;30529;53.570;9.964;2022-12-24T12:55:53;8.70;99.90
44817;DHT22;30529;53.570;9.964;2022-12-24T13:01:04;8.70;99.90
44817;DHT22;30529;53.570;9.964;2022-12-24T13:12:00;8.70;99.90
44817;DHT22;30529;53.570;9.964;2022-12-24T13:14:48;8.80;99.90
44817;DHT22;30529;53.570;9.964;2022-12-24T13:20:03;8.70;99.90
44817;DHT22;30529;53.570;9.964;2022-12-24T13:22:35;8.80;99.90
44817;DHT22;30529;53.570;9.964;2022-12-24T13:25:01;8.80;99.90
44817;DHT22;30529;53.570;9.964;2022-12-24T13:27:32;8.80;99.90
44817;DHT22;30529;53.570;9.964;2022-12-24T13:30:35;8.80;99.90
44817;DHT22;30529;53.570;9.964;2022-12-24T13:33:02;8.80;99.90
44817;DHT22;30529;53.570;9.964;2022-12-24T13:35:31;8.80;99.90
44817;DHT22;30529;53.570;9.964;2022-12-24T13:40:52;8.80;99.90
44817;DHT22;30529;53.570;9.964;2022-12-24T13:43:18;8.70;99.90
44817;DHT22;30529;53.570;9.964;2022-12-24T13:45:49;8.70;99.90
44817;DHT22;30529;53.570;9.964;2022-12-24T13:53:42;8.70;99.90
44817;DHT22;30529;53.570;9.964;2022-12-24T13:58:43;8.70;99.90
44817;DHT22;30529;53.570;9.964;2022-12-24T14:01:18;8.70;99.90
44817;DHT22;30529;53.570;9.964;2022-12-24T14:03:52;8.70;99.90
44817;DHT22;30529;53.570;9.964;2022-12-24T14:08:47;8.70;99.90
44817;DHT22;30529;53.570;9.964;2022-12-24T14:11:17;8.70;99.90
44817;DHT22;30529;53.570;9.964;2022-12-24T14:16:17;8.70;99.90
44817;DHT22;30529;53.570;9.964;2022-12-24T14:19:02;8.70;99.90
44817;DHT22;30529;53.570;9.964;2022-12-24T14:21:33;8.70;99.90
44817;DHT22;30529;53.570;9.964;2022-12-24T14:24:09;8.80;99.90
44817;DHT22;30529;53.570;9.964;2022-12-24T14:26:48;8.70;99.90
44817;DHT22;30529;53.570;9.964;2022-12-24T14:31:55;8.80;99.90
44817;DHT22;30529;53.570;9.964;2022-12-24T14:34:21;8.80;99.90
44817;DHT22;30529;53.570;9.964;2022-12-24T14:36:49;8.80;99.90
44817;DHT22;30529;53.570;9.964;2022-12-24T14:39:30;8.70;99.90
44817;DHT22;30529;53.570;9.964;2022-12-24T14:42:31;8.60;99.90
44817;DHT22;30529;53.570;9.964;2022-12-24T14:45:16;8.50;99.90
44817;DHT22;30529;53.570;9.964;2022-12-24T14:48:04;8.60;99.90
44817;DHT22;30529;53.570;9.964;2022-12-24T14:50:46;8.60;99.90
44817;DHT22;30529;53.570;9.964;2022-12-24T14:53:25;8.60;99.90
44817;DHT22;30529;53.570;9.964;2022-12-24T14:55:53;8.70;99.90
44817;DHT22;30529;53.570;9.964;2022-12-24T14:58:39;8.70;99.90
44817;DHT22;30529;53.570;9.964;2022-12-24T15:01:28;8.70;99.90
44817;DHT22;30529;53.570;9.964;2022-12-24T15:06:32;8.70;99.90
44817;DHT22;30529;53.570;9.964;2022-12-24T15:08:59;8.60;99.90
44817;DHT22;30529;53.570;9.964;2022-12-24T15:11:26;8.60;99.90
44817;DHT22;30529;53.570;9.964;2022-12-24T15:13:55;8.60;99.90
44817;DHT22;30529;53.570;9.964;2022-12-24T15:16:31;8.60;99.90
44817;DHT22;30529;53.570;9.964;2022-12-24T15:19:04;8.60;99.90
44817;DHT22;30529;53.570;9.964;2022-12-24T15:21:36;8.60;99.90
44817;DHT22;30529;53.570;9.964;2022-12-24T15:26:48;8.70;99.90
44817;DHT22;30529;53.570;9.964;2022-12-24T15:29:26;8.80;99.90
44817;DHT22;30529;53.570;9.964;2022-12-24T15:31:55;8.70;99.90
44817;DHT22;30529;53.570;9.964;2022-12-24T15:34:26;8.80;99.90
44817;DHT22;30529;53.570;9.964;2022-12-24T15:37:21;8.70;99.90
44817;DHT22;30529;53.570;9.964;2022-12-24T15:39:57;8.70;99.90
44817;DHT22;30529;53.570;9.964;2022-12-24T15:42:25;8.70;99.90
44817;DHT22;30529;53.570;9.964;2022-12-24T15:45:01;8.70;99.90
44817;DHT22;30529;53.570;9.964;2022-12-24T15:47:33;8.70;99.90
44817;DHT22;30529;53.570;9.964;2022-12-24T15:50:14;8.70;99.90
44817;DHT22;30529;53.570;9.964;2022-12-24T15:52:41;8.70;99.90
44817;DHT22;30529;53.570;9.964;2022-12-24T15:58:27;8.70;99.90
44817;DHT22;30529;53.570;9.964;2022-12-24T16:03:36;8.70;99.90
44817;DHT22;30529;53.570;9.964;2022-12-24T16:06:04;8.60;99.90
44817;DHT22;30529;53.570;9.964;2022-12-24T16:08:32;8.50;99.90
44817;DHT22;30529;53.570;9.964;2022-12-24T16:11:08;8.50;99.90
44817;DHT22;30529;53.570;9.964;2022-12-24T16:13:41;8.60;99.90
44817;DHT22;30529;53.570;9.964;2022-12-24T16:16:13;8.60;99.90
44817;DHT22;30529;53.570;9.964;2022-12-24T16:18:52;8.60;99.90
44817;DHT22;30529;53.570;9.964;2022-12-24T16:21:40;8.60;99.90
44817;DHT22;30529;53.570;9.964;2022-12-24T16:24:19;8.60;99.90
44817;DHT22;30529;53.570;9.964;2022-12-24T16:26:46;8.60;99.90
44817;DHT22;30529;53.570;9.964;2022-12-24T16:29:13;8.60;99.90
44817;DHT22;30529;53.570;9.964;2022-12-24T16:31:45;8.60;99.90
44817;DHT22;30529;53.570;9.964;2022-12-24T16:34:14;8.60;99.90
44817;DHT22;30529;53.570;9.964;2022-12-24T16:36:40;8.60;99.90
44817;DHT22;30529;53.570;9.964;2022-12-24T16:41:53;8.70;99.90
44817;DHT22;30529;53.570;9.964;2022-12-24T16:44:39;8.60;99.90
44817;DHT22;30529;53.570;9.964;2022-12-24T16:47:09;8.60;99.90
44817;DHT22;30529;53.570;9.964;2022-12-24T16:49:37;8.60;99.90
44817;DHT22;30529;53.570;9.964;2022-12-24T16:52:11;8.60;99.90
44817;DHT22;30529;53.570;9.964;2022-12-24T16:54:39;8.60;99.90
44817;DHT22;30529;53.570;9.964;2022-12-24T16:57:05;8.60;99.90
44817;DHT22;30529;53.570;9.964;2022-12-24T16:59:31;8.60;99.90
44817;DHT22;30529;53.570;9.964;2022-12-24T17:01:57;8.60;99.90
44817;DHT22;30529;53.570;9.964;2022-12-24T17:04:23;8.60;99.90
44817;DHT22;30529;53.570;9.964;2022-12-24T17:06:49;8.60;99.90
44817;DHT22;30529;53.570;9.964;2022-12-24T17:09:15;8.60;99.90
44817;DHT22;30529;53.570;9.964;2022-12-24T17:11:41;8.60;99.90
44817;DHT22;30529;53.570;9.964;2022-12-24T17:14:11;8.60;99.90
44817;DHT22;30529;53.570;9.964;2022-12-24T17:16:37;8.50;99.90
44817;DHT22;30529;53.570;9.964;2022-12-24T17:19:03;8.50;99.90
44817;DHT22;30529;53.570;9.964;2022-12-24T17:21:29;8.60;99.90
44817;DHT22;30529;53.570;9.964;2022-12-24T17:23:55;8.60;99.90
44817;DHT22;30529;53.570;9.964;2022-12-24T17:26:21;8.60;99.90
44817;DHT22;30529;53.570;9.964;2022-12-24T17:28:47;8.50;99.90
44817;DHT22;30529;53.570;9.964;2022-12-24T17:31:14;8.60;99.90
44817;DHT22;30529;53.570;9.964;2022-12-24T17:33:41;8.60;99.90
44817;DHT22;30529;53.570;9.964;2022-12-24T17:36:08;8.60;99.90